Time;durP1;ratioP1;P1;durP2;ratioP2;P2;SDS_P1;SDS_P2;PMS_P1;PMS_P2;Temp;Humidity;BMP_temperature;BMP_pressure;BME280_temperature;BME280_humidity;BME280_pressure;Samples;Min_cycle;Max_cycle;Signal;HPM_P1;HPM_P2
2022/05/10 00:00:15;;;;;;;14.55;11.30;;;14.60;99.90;;;;;;4994191;28;20426;-72
2022/05/10 00:02:42;;;;;;;15.20;12.60;;;14.60;99.90;;;;;;4993498;28;20037;-72
2022/05/10 00:05:08;;;;;;;15.27;12.43;;;14.50;99.90;;;;;;5001660;28;20581;-71
2022/05/10 00:07:36;;;;;;;19.63;12.55;;;14.50;99.90;;;;;;5033645;28;20493;-72
2022/05/10 00:10:05;;;;;;;13.18;11.50;;;14.50;99.90;;;;;;5032829;28;20095;-72
2022/05/10 00:12:31;;;;;;;16.55;12.23;;;14.50;99.90;;;;;;5033421;28;20437;-72
2022/05/10 00:14:56;;;;;;;17.20;13.05;;;14.50;99.90;;;;;;5027016;28;20052;-73
2022/05/10 00:17:47;;;;;;;22.15;13.10;;;14.50;99.90;;;;;;5033778;28;20370;-73
2022/05/10 00:20:18;;;;;;;21.42;14.35;;;14.50;99.90;;;;;;5033575;28;20037;-72
2022/05/10 00:22:44;;;;;;;17.77;13.63;;;14.50;99.90;;;;;;5033538;28;20101;-72
2022/05/10 00:25:14;;;;;;;18.20;13.25;;;14.50;99.90;;;;;;5032335;28;20099;-72
2022/05/10 00:27:40;;;;;;;18.15;14.05;;;14.50;99.90;;;;;;5033339;28;20025;-71
2022/05/10 00:30:06;;;;;;;20.85;14.40;;;14.50;99.90;;;;;;5032942;28;20053;-72
2022/05/10 00:32:34;;;;;;;17.40;14.27;;;14.50;99.90;;;;;;5032454;28;20021;-71
2022/05/10 00:35:01;;;;;;;21.48;15.07;;;14.50;99.90;;;;;;5032988;28;20063;-71
2022/05/10 00:37:28;;;;;;;21.30;15.43;;;14.40;99.90;;;;;;5033412;28;20033;-71
2022/05/10 00:39:54;;;;;;;19.60;14.85;;;14.40;99.90;;;;;;5032246;28;20152;-72
2022/05/10 00:42:33;;;;;;;22.23;15.75;;;14.40;99.90;;;;;;5032714;28;20026;-71
2022/05/10 00:45:03;;;;;;;17.90;14.68;;;14.40;99.90;;;;;;5031975;28;20046;-71
2022/05/10 00:47:43;;;;;;;17.23;14.30;;;14.40;99.90;;;;;;5032841;28;20020;-72
2022/05/10 00:50:32;;;;;;;22.73;15.00;;;14.50;99.90;;;;;;5032746;28;20033;-71
2022/05/10 00:53:10;;;;;;;21.75;14.65;;;14.40;99.90;;;;;;5031842;28;20076;-71
2022/05/10 00:55:44;;;;;;;20.42;15.10;;;14.50;99.90;;;;;;5033012;28;20075;-71
2022/05/10 00:58:38;;;;;;;18.13;14.18;;;14.50;99.90;;;;;;5032315;28;20046;-71
2022/05/10 01:01:04;;;;;;;21.65;14.90;;;14.50;99.90;;;;;;5032118;28;20528;-71
2022/05/10 01:03:34;;;;;;;19.88;14.20;;;14.50;99.90;;;;;;5032333;28;20033;-71
2022/05/10 01:06:24;;;;;;;21.00;15.27;;;14.50;99.90;;;;;;5031613;28;20818;-71
2022/05/10 01:09:09;;;;;;;22.92;14.40;;;14.60;99.90;;;;;;5032475;28;20106;-71
2022/05/10 01:11:45;;;;;;;19.65;13.35;;;14.50;99.90;;;;;;5032607;28;20116;-71
2022/05/10 01:14:18;;;;;;;18.63;13.57;;;14.50;99.90;;;;;;5031798;28;20453;-72
2022/05/10 01:16:43;;;;;;;23.90;14.60;;;14.60;99.90;;;;;;5032488;28;20097;-72
2022/05/10 01:19:09;;;;;;;23.00;13.63;;;14.60;99.90;;;;;;5031873;28;20760;-72
2022/05/10 01:21:49;;;;;;;19.45;13.73;;;14.60;99.90;;;;;;5031809;28;20037;-71
2022/05/10 01:24:29;;;;;;;22.30;14.65;;;14.60;99.90;;;;;;5032413;28;20096;-72
2022/05/10 01:27:09;;;;;;;23.17;14.43;;;14.50;99.90;;;;;;5031630;28;20036;-72
2022/05/10 01:30:18;;;;;;;17.98;13.63;;;14.60;99.90;;;;;;5032130;28;20025;-72
2022/05/10 01:36:03;;;;;;;21.20;14.43;;;14.50;99.90;;;;;;5031571;28;20043;-72
2022/05/10 01:38:40;;;;;;;19.13;13.57;;;14.50;99.90;;;;;;5032436;28;20032;-72
2022/05/10 01:41:24;;;;;;;21.60;13.13;;;14.50;99.90;;;;;;5031162;28;20026;-72
2022/05/10 01:44:10;;;;;;;19.58;13.70;;;14.50;99.90;;;;;;5031742;28;20037;-71
2022/05/10 01:46:36;;;;;;;26.35;14.32;;;14.50;99.90;;;;;;5032334;28;20135;-71
2022/05/10 01:49:47;;;;;;;20.15;13.73;;;14.50;99.90;;;;;;5031091;28;20629;-72
2022/05/10 01:52:39;;;;;;;17.85;12.85;;;14.50;99.90;;;;;;5031362;28;20037;-72
2022/05/10 01:55:16;;;;;;;22.25;14.13;;;14.50;99.90;;;;;;5031177;28;20057;-72
2022/05/10 01:57:42;;;;;;;24.80;14.55;;;14.60;99.90;;;;;;5031696;28;20057;-72
2022/05/10 02:00:18;;;;;;;23.20;13.57;;;14.50;99.90;;;;;;5031729;28;20039;-72
2022/05/10 02:03:12;;;;;;;21.15;13.75;;;14.50;99.90;;;;;;5031051;28;20030;-72
2022/05/10 02:05:50;;;;;;;21.83;13.55;;;14.60;99.90;;;;;;5031774;28;20060;-72
2022/05/10 02:08:31;;;;;;;23.85;13.98;;;14.50;99.90;;;;;;5031940;28;20065;-71
2022/05/10 02:11:01;;;;;;;20.13;13.57;;;14.50;99.90;;;;;;5030942;28;20104;-72
2022/05/10 02:13:34;;;;;;;25.98;14.07;;;14.50;99.90;;;;;;5032217;28;20022;-72
2022/05/10 02:16:05;;;;;;;18.95;15.00;;;14.50;99.90;;;;;;5034114;28;20037;-72
2022/05/10 02:18:41;;;;;;;19.52;12.90;;;14.60;99.90;;;;;;5036052;28;20029;-72
2022/05/10 02:21:12;;;;;;;18.35;12.48;;;14.60;99.90;;;;;;5036432;28;20026;-72
2022/05/10 02:23:49;;;;;;;19.45;12.65;;;14.60;99.90;;;;;;5035983;28;20104;-71
2022/05/10 02:26:33;;;;;;;21.85;12.77;;;14.60;99.90;;;;;;5036893;28;20111;-71
2022/05/10 02:29:20;;;;;;;19.80;12.98;;;14.70;99.90;;;;;;5036419;28;20026;-73
2022/05/10 02:34:36;;;;;;;19.60;12.70;;;14.70;99.90;;;;;;5035429;28;20031;-73
2022/05/10 02:37:02;;;;;;;17.38;12.60;;;14.70;99.90;;;;;;5035262;28;20103;-71
2022/05/10 02:39:28;;;;;;;20.63;12.68;;;14.70;99.90;;;;;;5034795;28;20022;-72
2022/05/10 02:41:53;;;;;;;25.67;13.50;;;14.80;99.90;;;;;;5035175;28;20025;-72
2022/05/10 02:44:19;;;;;;;24.95;13.35;;;14.80;99.90;;;;;;5034476;28;20117;-72
2022/05/10 02:46:45;;;;;;;18.67;12.35;;;14.80;99.90;;;;;;5035042;28;20061;-71
2022/05/10 02:49:11;;;;;;;26.35;13.77;;;14.80;99.90;;;;;;5034940;28;20052;-72
2022/05/10 02:51:36;;;;;;;19.70;12.45;;;14.80;99.90;;;;;;5034459;28;20053;-72
2022/05/10 02:54:02;;;;;;;15.68;12.10;;;14.80;99.90;;;;;;5034721;28;20021;-73
2022/05/10 02:56:29;;;;;;;20.65;13.27;;;14.80;99.90;;;;;;5034729;28;20029;-71
2022/05/10 02:59:15;;;;;;;18.38;12.40;;;14.90;99.90;;;;;;5033811;28;20489;-72
2022/05/10 03:01:55;;;;;;;18.50;12.57;;;14.90;99.90;;;;;;5035073;28;20034;-72
2022/05/10 03:04:22;;;;;;;20.98;14.07;;;14.90;99.90;;;;;;5034787;28;20025;-72
2022/05/10 03:06:47;;;;;;;21.02;12.73;;;14.80;99.90;;;;;;5034239;28;20121;-71
2022/05/10 03:09:14;;;;;;;24.80;13.60;;;14.80;99.90;;;;;;5034655;28;20105;-72
2022/05/10 03:11:40;;;;;;;19.20;12.35;;;14.80;99.90;;;;;;5034518;28;20381;-72
2022/05/10 03:14:08;;;;;;;22.35;14.32;;;14.80;99.90;;;;;;5033600;28;20026;-72
2022/05/10 03:16:34;;;;;;;17.42;12.68;;;14.80;99.90;;;;;;5034501;28;20053;-72
2022/05/10 03:18:59;;;;;;;21.10;12.90;;;14.80;99.90;;;;;;5034537;28;20060;-72
2022/05/10 03:21:25;;;;;;;22.45;14.07;;;14.70;99.90;;;;;;5033822;28;20489;-71
2022/05/10 03:23:52;;;;;;;18.65;13.80;;;14.80;99.90;;;;;;5034094;28;20441;-72
2022/05/10 03:26:23;;;;;;;18.10;13.73;;;14.80;99.90;;;;;;5033169;28;20064;-71
2022/05/10 03:28:48;;;;;;;16.08;13.18;;;14.70;99.90;;;;;;5034182;28;20022;-72
2022/05/10 03:31:16;;;;;;;19.67;13.20;;;14.80;99.90;;;;;;5034257;28;20033;-72
2022/05/10 03:33:43;;;;;;;19.50;14.13;;;14.70;99.90;;;;;;5033528;28;20067;-72
2022/05/10 03:36:09;;;;;;;21.77;13.38;;;14.70;99.90;;;;;;5033881;28;20021;-72
2022/05/10 03:38:36;;;;;;;21.42;13.90;;;14.70;99.90;;;;;;5034042;28;20520;-72
2022/05/10 03:41:02;;;;;;;19.25;14.95;;;14.70;99.90;;;;;;5033124;28;20465;-72
2022/05/10 03:43:28;;;;;;;19.48;14.50;;;14.70;99.90;;;;;;5033974;28;20029;-71
2022/05/10 03:45:57;;;;;;;17.77;12.90;;;14.70;99.90;;;;;;5033465;28;20032;-72
2022/05/10 03:48:23;;;;;;;22.70;15.23;;;14.70;99.90;;;;;;5033310;28;20029;-72
2022/05/10 03:50:48;;;;;;;19.80;14.25;;;14.70;99.90;;;;;;5033482;28;20462;-72
2022/05/10 03:53:14;;;;;;;21.55;14.02;;;14.70;99.90;;;;;;5033502;28;20505;-72
2022/05/10 03:55:39;;;;;;;18.60;15.30;;;14.70;99.90;;;;;;5032749;28;20370;-71
2022/05/10 03:58:05;;;;;;;20.80;14.80;;;14.70;99.90;;;;;;5033090;28;20081;-71
2022/05/10 04:00:31;;;;;;;21.80;15.18;;;14.70;99.90;;;;;;5033577;28;20091;-72
2022/05/10 04:02:58;;;;;;;24.35;14.88;;;14.70;99.90;;;;;;5032611;28;20477;-72
2022/05/10 04:05:25;;;;;;;22.27;14.77;;;14.60;99.90;;;;;;5033212;28;20034;-72
2022/05/10 04:07:51;;;;;;;20.67;14.68;;;14.60;99.90;;;;;;5033106;28;20045;-71
2022/05/10 04:10:19;;;;;;;22.55;14.02;;;14.60;99.90;;;;;;5033001;28;20115;-71
2022/05/10 04:12:45;;;;;;;24.45;14.18;;;14.60;99.90;;;;;;5033438;28;20041;-71
2022/05/10 04:15:14;;;;;;;20.85;15.00;;;14.60;99.90;;;;;;5033079;28;20466;-72
2022/05/10 04:17:44;;;;;;;24.65;15.35;;;14.60;99.90;;;;;;5032616;28;20034;-71
2022/05/10 04:20:12;;;;;;;20.13;15.17;;;14.60;99.90;;;;;;5032835;28;20036;-72
2022/05/10 04:22:37;;;;;;;22.10;14.98;;;14.60;99.90;;;;;;5032989;28;20100;-72
2022/05/10 04:25:04;;;;;;;35.13;14.88;;;14.60;99.90;;;;;;5032888;28;20171;-72
2022/05/10 04:27:29;;;;;;;25.05;15.73;;;14.60;99.90;;;;;;5033334;28;20498;-73
2022/05/10 04:29:55;;;;;;;24.05;15.60;;;14.70;99.90;;;;;;5032673;28;20068;-71
2022/05/10 04:32:21;;;;;;;22.10;13.60;;;14.70;99.90;;;;;;5032943;28;20051;-72
2022/05/10 04:34:46;;;;;;;27.98;14.75;;;14.70;99.90;;;;;;5032808;28;20030;-71
2022/05/10 04:37:15;;;;;;;20.67;14.65;;;14.80;99.90;;;;;;5032077;28;20028;-72
2022/05/10 04:42:25;;;;;;;21.50;13.77;;;14.90;99.90;;;;;;5033525;28;20409;-71
2022/05/10 04:44:50;;;;;;;25.60;14.75;;;14.90;99.90;;;;;;5031973;28;20022;-71
2022/05/10 04:47:16;;;;;;;20.77;13.68;;;14.90;99.90;;;;;;5032682;28;20029;-72
2022/05/10 04:49:41;;;;;;;26.25;14.60;;;15.00;99.90;;;;;;5032722;28;20347;-72
2022/05/10 04:52:09;;;;;;;21.35;13.98;;;15.00;99.90;;;;;;5031932;28;20045;-72
2022/05/10 04:54:34;;;;;;;23.55;15.05;;;15.10;99.90;;;;;;5032610;28;20056;-73
2022/05/10 04:57:01;;;;;;;20.52;14.02;;;15.10;99.90;;;;;;5032267;28;20046;-73
2022/05/10 04:59:26;;;;;;;27.52;15.77;;;15.20;99.90;;;;;;5031968;28;20495;-72
2022/05/10 05:01:52;;;;;;;24.73;14.70;;;15.20;99.90;;;;;;5032494;28;20096;-72
2022/05/10 05:04:17;;;;;;;26.20;14.00;;;15.20;99.90;;;;;;5032452;28;20389;-72
2022/05/10 05:06:43;;;;;;;23.20;15.25;;;15.30;99.90;;;;;;5031880;28;20026;-72
2022/05/10 05:09:08;;;;;;;22.85;15.10;;;15.30;99.90;;;;;;5032287;28;20045;-72
2022/05/10 05:11:34;;;;;;;24.30;14.65;;;15.40;99.90;;;;;;5032271;28;20572;-73
2022/05/10 05:13:59;;;;;;;26.08;14.82;;;15.50;99.90;;;;;;5031356;28;20504;-71
2022/05/10 05:16:25;;;;;;;23.90;14.88;;;15.50;99.90;;;;;;5032137;28;20025;-72
2022/05/10 05:18:51;;;;;;;28.77;14.48;;;15.50;99.90;;;;;;5031956;28;20115;-72
2022/05/10 05:21:17;;;;;;;29.30;14.88;;;15.60;99.90;;;;;;5031934;28;20041;-73
2022/05/10 05:23:43;;;;;;;26.75;14.75;;;15.60;99.90;;;;;;5032447;28;20030;-72
2022/05/10 05:26:09;;;;;;;20.95;13.82;;;15.70;99.90;;;;;;5031075;28;20083;-72
2022/05/10 05:28:35;;;;;;;18.88;13.02;;;15.80;99.90;;;;;;5032064;28;20104;-72
2022/05/10 05:31:01;;;;;;;21.08;13.98;;;15.80;99.90;;;;;;5031835;28;20374;-73
2022/05/10 05:33:27;;;;;;;19.38;13.43;;;15.90;99.90;;;;;;5031442;28;20064;-72
2022/05/10 05:35:53;;;;;;;24.80;14.00;;;16.00;99.90;;;;;;5031758;28;20029;-73
2022/05/10 05:38:18;;;;;;;26.02;14.60;;;16.10;99.90;;;;;;5032071;28;20064;-72
2022/05/10 05:40:44;;;;;;;21.25;13.38;;;16.10;99.90;;;;;;5031316;28;20025;-72
2022/05/10 05:43:17;;;;;;;21.40;13.02;;;16.20;99.90;;;;;;5031717;28;20026;-72
2022/05/10 05:45:42;;;;;;;23.38;13.32;;;16.30;99.90;;;;;;5031733;28;20040;-72
2022/05/10 05:48:09;;;;;;;23.67;14.25;;;16.50;99.90;;;;;;5029497;28;20025;-71
2022/05/10 05:50:35;;;;;;;21.52;13.40;;;16.60;99.90;;;;;;5035832;28;20029;-71
2022/05/10 05:53:01;;;;;;;24.92;14.50;;;16.70;99.90;;;;;;5035792;28;20480;-73
2022/05/10 05:55:26;;;;;;;22.15;13.88;;;16.80;99.90;;;;;;5035464;28;20025;-72
2022/05/10 05:57:52;;;;;;;20.05;13.63;;;17.00;99.90;;;;;;5035544;28;20507;-71
2022/05/10 06:00:21;;;;;;;17.85;13.35;;;17.00;99.90;;;;;;5035818;28;20568;-73
2022/05/10 06:02:47;;;;;;;23.42;14.13;;;17.10;99.90;;;;;;5035394;28;20042;-71
2022/05/10 06:05:12;;;;;;;19.00;13.52;;;17.20;99.90;;;;;;5035416;28;20448;-72
2022/05/10 06:07:38;;;;;;;20.10;13.90;;;17.20;99.90;;;;;;5035628;28;20095;-72
2022/05/10 06:10:06;;;;;;;27.08;15.35;;;17.20;99.90;;;;;;5034739;28;20025;-72
2022/05/10 06:12:31;;;;;;;26.92;13.65;;;17.30;99.90;;;;;;5035553;28;20035;-72
2022/05/10 06:14:59;;;;;;;20.05;13.75;;;17.30;99.90;;;;;;5035202;28;20025;-73
2022/05/10 06:17:24;;;;;;;25.00;14.75;;;17.40;99.90;;;;;;5032517;28;20025;-72
2022/05/10 06:19:50;;;;;;;28.33;15.00;;;17.40;99.90;;;;;;5035156;28;20124;-72
2022/05/10 06:22:16;;;;;;;24.90;13.85;;;17.40;99.90;;;;;;5032787;28;20018;-72
2022/05/10 06:24:41;;;;;;;21.50;13.85;;;17.50;99.90;;;;;;5033077;28;20088;-72
2022/05/10 06:27:12;;;;;;;27.85;13.48;;;17.50;99.90;;;;;;5029177;28;20769;-72
2022/05/10 06:29:38;;;;;;;22.10;13.13;;;17.60;99.90;;;;;;5032209;28;20041;-72
2022/05/10 06:32:04;;;;;;;23.95;13.88;;;17.60;99.90;;;;;;5032134;28;20068;-72
2022/05/10 06:34:29;;;;;;;29.35;13.63;;;17.70;99.90;;;;;;5030751;28;20048;-73
2022/05/10 06:36:55;;;;;;;19.55;12.73;;;17.80;99.90;;;;;;5032631;28;20369;-73
2022/05/10 06:39:20;;;;;;;20.77;13.90;;;17.90;99.90;;;;;;5032552;28;20025;-73
2022/05/10 06:41:46;;;;;;;23.85;12.35;;;18.10;99.90;;;;;;5033726;28;20108;-73
2022/05/10 06:44:11;;;;;;;21.98;12.95;;;18.20;99.90;;;;;;5032598;28;20068;-72
2022/05/10 06:46:37;;;;;;;18.63;13.68;;;18.20;99.90;;;;;;5029037;28;20397;-73
2022/05/10 06:49:04;;;;;;;21.88;13.27;;;18.30;99.90;;;;;;5034538;28;20013;-73
2022/05/10 06:51:30;;;;;;;18.52;12.20;;;18.40;99.90;;;;;;5030207;28;20080;-73
2022/05/10 06:53:56;;;;;;;19.95;13.13;;;18.40;99.90;;;;;;5033608;28;20132;-73
2022/05/10 06:56:22;;;;;;;15.98;11.85;;;18.50;99.90;;;;;;5032312;28;20128;-72
2022/05/10 06:58:48;;;;;;;23.38;13.10;;;18.60;99.90;;;;;;5032487;28;20033;-73
2022/05/10 07:01:14;;;;;;;16.63;12.10;;;18.70;99.90;;;;;;5031472;28;20626;-72
2022/05/10 07:03:44;;;;;;;16.08;11.40;;;18.80;99.90;;;;;;5033111;28;20116;-71
2022/05/10 07:06:12;;;;;;;20.05;12.75;;;18.80;99.90;;;;;;5030350;28;20037;-71
2022/05/10 07:08:37;;;;;;;18.40;11.65;;;18.90;99.90;;;;;;5029423;28;20045;-70
2022/05/10 07:11:04;;;;;;;16.65;12.73;;;18.90;99.90;;;;;;5032026;28;20477;-71
2022/05/10 07:13:31;;;;;;;18.27;12.65;;;19.00;99.90;;;;;;5028703;28;20035;-70
2022/05/10 07:15:57;;;;;;;14.00;11.07;;;19.00;99.90;;;;;;5031266;28;20482;-70
2022/05/10 07:18:23;;;;;;;13.50;10.70;;;19.00;99.90;;;;;;5032858;28;20025;-70
2022/05/10 07:20:50;;;;;;;14.10;11.05;;;19.10;99.90;;;;;;5032503;28;20366;-71
2022/05/10 07:23:20;;;;;;;17.48;12.23;;;19.10;99.90;;;;;;5034054;28;20030;-71
2022/05/10 07:25:46;;;;;;;;;;;19.20;99.90;;;;;;5033640;28;20474;-71
2022/05/10 07:28:11;;;;;;;20.92;12.23;;;19.30;99.90;;;;;;5033983;28;19959;-71
2022/05/10 07:30:37;;;;;;;16.20;12.43;;;19.30;99.90;;;;;;5033929;28;20381;-71
2022/05/10 07:33:03;;;;;;;18.77;12.02;;;19.40;99.90;;;;;;5033158;28;20029;-71
2022/05/10 07:38:16;;;;;;;16.65;10.02;;;19.50;99.90;;;;;;5034272;28;20398;-70
2022/05/10 07:40:44;;;;;;;12.65;11.27;;;19.50;99.90;;;;;;5033255;28;20039;-71
2022/05/10 07:43:12;;;;;;;12.90;11.43;;;19.50;99.90;;;;;;5033765;28;20111;-70
2022/05/10 07:45:39;;;;;;;16.30;10.20;;;19.60;99.90;;;;;;5033806;28;20044;-71
2022/05/10 07:48:06;;;;;;;19.38;11.02;;;19.70;99.90;;;;;;5032793;28;20018;-70
2022/05/10 07:50:32;;;;;;;15.07;11.27;;;19.70;99.90;;;;;;5033805;28;20112;-70
2022/05/10 07:52:59;;;;;;;12.95;11.65;;;19.70;99.90;;;;;;5033698;28;20037;-70
2022/05/10 07:55:25;;;;;;;17.23;10.98;;;19.90;99.90;;;;;;5032964;28;20547;-71
2022/05/10 07:57:50;;;;;;;15.23;11.00;;;19.90;99.90;;;;;;5033199;28;20042;-71
2022/05/10 08:00:17;;;;;;;13.13;11.25;;;20.00;99.90;;;;;;5035006;28;20026;-71
2022/05/10 08:02:43;;;;;;;13.88;10.52;;;20.10;99.90;;;;;;5034566;28;20041;-71
2022/05/10 08:05:22;;;;;;;15.88;12.20;;;20.20;99.90;;;;;;5033112;28;20045;-73
2022/05/10 08:07:48;;;;;;;11.93;10.82;;;20.30;99.90;;;;;;5032796;28;20057;-73
2022/05/10 08:10:19;;;;;;;16.83;10.80;;;20.40;99.90;;;;;;5033267;28;20065;-71
2022/05/10 08:12:45;;;;;;;11.43;9.93;;;20.50;99.90;;;;;;5032303;28;20136;-71
2022/05/10 08:15:11;;;;;;;14.63;10.48;;;20.60;99.90;;;;;;5032051;28;20037;-71
2022/05/10 08:17:37;;;;;;;15.20;10.25;;;20.70;99.90;;;;;;5033192;28;20067;-72
2022/05/10 08:20:05;;;;;;;11.82;8.98;;;20.70;99.90;;;;;;5033119;28;20030;-71
2022/05/10 08:22:31;;;;;;;11.38;9.50;;;20.70;99.90;;;;;;5032378;28;20637;-70
2022/05/10 08:24:57;;;;;;;14.90;10.00;;;20.70;99.90;;;;;;5032773;28;20099;-70
2022/05/10 08:27:23;;;;;;;13.30;10.13;;;20.80;99.90;;;;;;5008673;28;20104;-72
2022/05/10 08:29:48;;;;;;;11.80;10.60;;;20.80;99.90;;;;;;5003763;28;20175;-71
2022/05/10 08:32:15;;;;;;;11.07;9.38;;;20.90;99.90;;;;;;5010746;28;20064;-71
2022/05/10 08:34:41;;;;;;;14.02;9.32;;;21.00;99.90;;;;;;4994077;28;20034;-71
2022/05/10 08:37:07;;;;;;;9.88;8.98;;;21.20;99.90;;;;;;4995525;28;20045;-70
2022/05/10 08:39:32;;;;;;;12.80;9.20;;;21.40;99.90;;;;;;5004008;28;20034;-72
2022/05/10 08:42:07;;;;;;;13.10;8.48;;;21.50;99.90;;;;;;5018265;28;20021;-71
2022/05/10 08:44:38;;;;;;;9.00;7.57;;;21.70;99.90;;;;;;5013845;28;20034;-70
2022/05/10 08:47:07;;;;;;;10.70;7.53;;;21.80;99.90;;;;;;5000597;28;20363;-71
2022/05/10 08:49:33;;;;;;;9.55;7.55;;;22.00;99.80;;;;;;5015475;28;20378;-71
2022/05/10 08:51:58;;;;;;;15.13;7.47;;;22.20;99.40;;;;;;5012894;28;20023;-70
2022/05/10 08:54:26;;;;;;;15.02;7.65;;;22.30;99.50;;;;;;5016752;28;20029;-71
2022/05/10 08:57:00;;;;;;;11.15;7.55;;;22.40;98.30;;;;;;5010166;28;20140;-71
2022/05/10 08:59:29;;;;;;;7.80;6.45;;;22.50;98.30;;;;;;5008297;28;20479;-70
2022/05/10 09:02:17;;;;;;;9.07;6.43;;;22.50;97.80;;;;;;4994576;28;20053;-71
2022/05/10 09:05:01;;;;;;;11.57;6.88;;;22.60;97.20;;;;;;5004691;28;20401;-70
2022/05/10 09:08:01;;;;;;;7.80;6.45;;;22.60;97.60;;;;;;5012682;28;20041;-71
2022/05/10 09:10:37;;;;;;;7.45;5.88;;;22.80;96.90;;;;;;5030683;28;20021;-72
2022/05/10 09:13:10;;;;;;;8.77;5.15;;;22.90;96.70;;;;;;5029429;28;20107;-72
2022/05/10 09:15:40;;;;;;;8.70;6.70;;;23.00;96.50;;;;;;5029399;28;20116;-72
2022/05/10 09:18:25;;;;;;;11.20;5.70;;;23.10;95.70;;;;;;5030307;28;20022;-73
2022/05/10 09:20:58;;;;;;;9.10;6.00;;;23.20;95.10;;;;;;5027205;28;20038;-72
2022/05/10 09:23:40;;;;;;;7.25;4.90;;;23.20;94.90;;;;;;5031240;28;20053;-72
2022/05/10 09:26:08;;;;;;;7.75;5.00;;;23.30;95.00;;;;;;5031070;28;20374;-73
2022/05/10 09:28:50;;;;;;;8.27;5.32;;;23.30;94.80;;;;;;5030858;28;20181;-72
2022/05/10 09:37:27;;;;;;;9.02;5.80;;;23.50;94.00;;;;;;5029109;28;20409;-72
2022/05/10 09:39:55;;;;;;;6.30;5.70;;;23.50;94.30;;;;;;5028602;28;20377;-72
2022/05/10 09:42:35;;;;;;;12.98;5.05;;;23.50;94.60;;;;;;5030045;28;20025;-72
2022/05/10 09:45:11;;;;;;;12.52;4.45;;;23.60;94.20;;;;;;5031432;28;20045;-71
2022/05/10 09:47:38;;;;;;;6.97;4.82;;;23.70;93.60;;;;;;5032829;28;20022;-71
2022/05/10 09:50:32;;;;;;;7.72;4.13;;;23.70;93.00;;;;;;5031798;28;20040;-73
2022/05/10 09:53:11;;;;;;;8.93;4.50;;;23.80;92.80;;;;;;5030680;28;20406;-73
2022/05/10 09:55:37;;;;;;;5.88;4.45;;;23.80;92.60;;;;;;5031072;28;20477;-72
2022/05/10 09:58:22;;;;;;;13.23;5.30;;;23.80;92.90;;;;;;5031195;28;20058;-72
2022/05/10 10:00:52;;;;;;;6.88;5.15;;;23.90;92.60;;;;;;5019590;28;20030;-73
2022/05/10 10:03:33;;;;;;;11.55;5.35;;;23.90;92.50;;;;;;5011965;28;20026;-72
2022/05/10 10:06:25;;;;;;;7.18;4.40;;;23.90;92.00;;;;;;4991804;28;20038;-72
2022/05/10 10:08:56;;;;;;;6.50;5.90;;;23.80;91.80;;;;;;4997946;28;20394;-71
2022/05/10 10:11:21;;;;;;;9.15;5.20;;;23.90;92.20;;;;;;5012039;28;20096;-71
2022/05/10 10:13:51;;;;;;;13.80;4.82;;;23.80;91.70;;;;;;5011905;28;20466;-72
2022/05/10 10:16:30;;;;;;;7.07;4.88;;;23.80;92.50;;;;;;5005437;28;20532;-72
2022/05/10 10:19:01;;;;;;;9.65;5.18;;;23.70;92.00;;;;;;4991920;28;20042;-73
2022/05/10 10:21:30;;;;;;;7.65;5.65;;;23.70;92.10;;;;;;4991512;28;20022;-73
2022/05/10 10:23:58;;;;;;;9.73;5.60;;;23.80;92.00;;;;;;4991924;28;20034;-73
2022/05/10 10:26:26;;;;;;;10.95;5.72;;;23.90;92.20;;;;;;4992333;28;20042;-72
2022/05/10 10:29:05;;;;;;;6.07;5.38;;;23.90;91.70;;;;;;4991162;28;20027;-71
2022/05/10 10:31:36;;;;;;;11.55;6.05;;;23.60;91.80;;;;;;4992279;28;20114;-70
2022/05/10 10:34:19;;;;;;;11.18;6.35;;;23.40;92.10;;;;;;4992047;28;20386;-70
2022/05/10 10:36:55;;;;;;;7.40;5.47;;;23.30;92.50;;;;;;4995281;28;20023;-72
2022/05/10 10:39:45;;;;;;;6.53;5.85;;;23.50;92.40;;;;;;4995791;28;20022;-73
2022/05/10 10:42:14;;;;;;;9.15;5.78;;;23.60;91.30;;;;;;4995559;28;20092;-72
2022/05/10 10:44:47;;;;;;;11.75;6.35;;;23.60;91.20;;;;;;5000261;28;20033;-71
2022/05/10 10:47:45;;;;;;;8.95;6.40;;;23.60;90.70;;;;;;5034796;28;20036;-72
2022/05/10 10:50:27;;;;;;;14.13;5.70;;;23.60;92.10;;;;;;5034277;28;20060;-73
2022/05/10 10:52:56;;;;;;;6.80;6.20;;;23.80;91.60;;;;;;5034856;28;20037;-72
2022/05/10 10:55:36;;;;;;;9.45;5.45;;;23.80;91.20;;;;;;5035279;28;20049;-73
2022/05/10 10:58:06;;;;;;;9.82;6.32;;;23.70;91.20;;;;;;5033755;28;20489;-72
2022/05/10 11:00:50;;;;;;;;;;;23.90;91.30;;;;;;5035299;28;20075;-72
2022/05/10 11:03:31;;;;;;;9.77;6.47;;;23.90;91.50;;;;;;5034876;28;19995;-72
2022/05/10 11:06:18;;;;;;;7.18;6.47;;;24.10;90.80;;;;;;5034479;28;20033;-73
2022/05/10 11:08:55;;;;;;;6.28;4.70;;;24.10;90.80;;;;;;5035135;28;20021;-72
2022/05/10 11:11:34;;;;;;;10.68;5.22;;;24.00;90.20;;;;;;5034602;28;20037;-72
2022/05/10 11:14:08;;;;;;;12.02;5.72;;;23.90;90.10;;;;;;5034521;28;20029;-73
2022/05/10 11:17:12;;;;;;;11.20;5.75;;;23.80;90.30;;;;;;5034617;28;20088;-72
2022/05/10 11:19:56;;;;;;;7.93;5.50;;;23.90;89.70;;;;;;5033929;28;20459;-72
2022/05/10 11:22:30;;;;;;;7.45;5.85;;;23.90;90.60;;;;;;5034337;28;20033;-72
2022/05/10 11:25:08;;;;;;;8.20;5.93;;;24.00;90.30;;;;;;5033547;28;20037;-72
2022/05/10 11:27:56;;;;;;;9.95;5.53;;;24.10;90.70;;;;;;5034583;28;20057;-72
2022/05/10 11:30:57;;;;;;;8.10;6.80;;;24.10;90.70;;;;;;5034445;28;20099;-72
2022/05/10 11:33:35;;;;;;;7.15;6.45;;;24.10;90.70;;;;;;5033585;28;20038;-72
2022/05/10 11:36:24;;;;;;;8.45;7.20;;;24.20;91.50;;;;;;5030064;28;20033;-72
2022/05/10 11:39:24;;;;;;;12.20;7.40;;;24.20;91.30;;;;;;5029047;28;20140;-72
2022/05/10 11:42:17;;;;;;;8.50;6.63;;;24.20;91.40;;;;;;5033692;28;20504;-73
2022/05/10 11:44:57;;;;;;;9.75;7.55;;;24.20;91.50;;;;;;5033828;28;20033;-73
2022/05/10 11:47:53;;;;;;;14.55;7.10;;;24.20;91.80;;;;;;5032273;28;20080;-71
2022/05/10 11:50:27;;;;;;;15.98;7.38;;;24.20;92.10;;;;;;5033938;28;20087;-73
2022/05/10 11:53:06;;;;;;;9.90;8.70;;;24.20;92.30;;;;;;5033135;28;20021;-72
2022/05/10 11:55:47;;;;;;;8.70;7.80;;;24.20;91.90;;;;;;5033803;28;20048;-72
2022/05/10 11:58:14;;;;;;;11.43;6.97;;;24.20;92.60;;;;;;5033312;28;20088;-72
2022/05/10 12:00:46;;;;;;;10.88;8.48;;;24.40;93.40;;;;;;5033051;28;20065;-73
2022/05/10 12:03:40;;;;;;;10.73;8.85;;;24.40;92.20;;;;;;5033495;28;20040;-72
2022/05/10 12:06:23;;;;;;;13.65;8.32;;;24.50;92.70;;;;;;5033012;28;20504;-71
2022/05/10 12:08:50;;;;;;;12.23;10.30;;;24.60;92.10;;;;;;5032650;28;20413;-71
2022/05/10 12:11:28;;;;;;;12.27;8.80;;;24.50;92.40;;;;;;5031998;28;20096;-72
2022/05/10 12:22:12;;;;;;;11.50;8.20;;;25.00;91.80;;;;;;5031454;28;20495;-71
2022/05/10 12:24:44;;;;;;;10.25;8.15;;;24.90;91.10;;;;;;5021389;28;20030;-72
2022/05/10 12:27:12;;;;;;;11.00;8.15;;;25.10;91.00;;;;;;5032283;28;20053;-71
2022/05/10 12:29:38;;;;;;;9.90;7.30;;;25.20;91.40;;;;;;5029483;28;20025;-71
2022/05/10 12:32:21;;;;;;;9.52;6.72;;;25.30;90.80;;;;;;5029754;28;20078;-71
2022/05/10 12:34:58;;;;;;;8.35;7.53;;;25.30;90.40;;;;;;5030747;28;20021;-71
2022/05/10 12:37:27;;;;;;;15.70;6.85;;;25.00;90.10;;;;;;5029180;28;20026;-72
2022/05/10 12:40:05;;;;;;;10.57;7.80;;;24.80;89.70;;;;;;5029919;28;20026;-71
2022/05/10 12:43:04;;;;;;;8.93;6.97;;;24.40;90.40;;;;;;5030456;28;20048;-72
2022/05/10 12:45:53;;;;;;;7.60;6.90;;;24.20;90.50;;;;;;5031476;28;20037;-72
2022/05/10 12:48:43;;;;;;;12.75;7.07;;;24.10;91.30;;;;;;5028577;28;20021;-72
2022/05/10 12:51:18;;;;;;;10.35;6.28;;;24.00;90.80;;;;;;5030049;28;20540;-72
2022/05/10 12:53:52;;;;;;;8.65;7.13;;;23.90;91.20;;;;;;5028999;28;20520;-72
2022/05/10 12:56:27;;;;;;;7.00;6.20;;;24.30;91.10;;;;;;5028824;28;20021;-73
2022/05/10 12:58:56;;;;;;;7.50;6.07;;;23.60;91.30;;;;;;5030512;28;20072;-71
2022/05/10 13:01:25;;;;;;;13.15;5.47;;;23.50;91.70;;;;;;5030922;28;20018;-71
2022/05/10 13:04:13;;;;;;;8.60;5.30;;;23.40;91.40;;;;;;5029920;28;20614;-71
2022/05/10 13:06:53;;;;;;;10.23;5.75;;;23.20;90.90;;;;;;5026696;28;20041;-72
2022/05/10 13:09:29;;;;;;;7.60;5.07;;;23.30;91.20;;;;;;5025616;28;20492;-72
2022/05/10 13:12:07;;;;;;;7.47;5.20;;;23.20;91.00;;;;;;5030138;28;20028;-72
2022/05/10 13:14:45;;;;;;;8.48;4.47;;;23.30;91.70;;;;;;5030904;28;20026;-72
2022/05/10 13:17:19;;;;;;;9.15;5.07;;;23.40;89.60;;;;;;5024786;28;20140;-71
2022/05/10 13:19:45;;;;;;;5.72;3.90;;;23.30;90.00;;;;;;5024095;28;20474;-71
2022/05/10 13:22:15;;;;;;;6.32;3.83;;;23.40;88.70;;;;;;5023989;28;20033;-72